createdAt,value
2022-12-18T00:00:10.696Z,3.12
2022-12-18T00:01:10.632Z,3.05
2022-12-18T00:02:10.564Z,3.10
2022-12-18T00:03:10.598Z,3.09
2022-12-18T00:04:10.538Z,3.09
2022-12-18T00:05:10.376Z,3.02
2022-12-18T00:06:10.387Z,3.02
2022-12-18T00:07:10.246Z,3.02
2022-12-18T00:08:10.192Z,3.05
2022-12-18T00:09:10.122Z,3.00
2022-12-18T00:10:10.059Z,3.12
2022-12-18T00:11:10.050Z,3.07
2022-12-18T00:13:10.334Z,3.07
2022-12-18T00:14:09.797Z,3.10
2022-12-18T00:15:09.746Z,3.09
2022-12-18T00:16:09.705Z,3.03
2022-12-18T00:17:09.615Z,3.06
2022-12-18T00:18:09.548Z,3.07
2022-12-18T00:19:09.481Z,3.06
2022-12-18T00:20:09.417Z,2.98
2022-12-18T00:21:09.355Z,3.07
2022-12-18T00:22:09.287Z,3.06
2022-12-18T00:23:09.231Z,3.05
2022-12-18T00:24:09.160Z,2.94
2022-12-18T00:25:09.118Z,3.07
2022-12-18T00:26:09.030Z,3.00
2022-12-18T00:27:08.986Z,2.98
2022-12-18T00:28:08.902Z,2.89
2022-12-18T00:29:08.841Z,2.97
2022-12-18T00:30:08.777Z,3.02
2022-12-18T00:31:08.734Z,2.92
2022-12-18T00:32:08.649Z,2.95
2022-12-18T00:33:08.586Z,2.92
2022-12-18T00:34:08.525Z,2.92
2022-12-18T00:35:08.462Z,2.97
2022-12-18T00:36:08.396Z,2.88
2022-12-18T00:37:08.327Z,2.84
2022-12-18T00:38:08.271Z,2.84
2022-12-18T00:39:08.203Z,2.87
2022-12-18T00:40:08.135Z,2.88
2022-12-18T00:41:08.077Z,2.88
2022-12-18T00:42:08.005Z,2.87
2022-12-18T00:43:08.105Z,2.89
2022-12-18T00:44:07.887Z,2.87
2022-12-18T00:45:12.675Z,2.84
2022-12-18T00:46:07.788Z,2.91
2022-12-18T00:47:07.693Z,2.77
2022-12-18T00:48:07.628Z,2.82
2022-12-18T00:49:07.567Z,2.88
2022-12-18T00:50:07.496Z,2.79
2022-12-18T00:51:07.434Z,2.84
2022-12-18T00:52:07.406Z,2.84
2022-12-18T00:53:07.313Z,2.84
2022-12-18T00:54:07.243Z,2.85
2022-12-18T00:55:07.182Z,2.82
2022-12-18T00:56:07.130Z,2.84
2022-12-18T00:57:07.051Z,2.91
2022-12-18T00:58:06.983Z,2.77
2022-12-18T00:59:06.923Z,2.81
2022-12-18T01:00:06.862Z,2.74
2022-12-18T01:01:21.724Z,2.79
2022-12-18T01:02:06.802Z,2.74
2022-12-18T01:03:06.774Z,2.82
2022-12-18T01:04:06.604Z,2.85
2022-12-18T01:05:06.558Z,2.77
2022-12-18T01:06:06.468Z,2.82
2022-12-18T01:07:06.454Z,2.82
2022-12-18T01:08:06.344Z,2.82
2022-12-18T01:09:06.279Z,2.79
2022-12-18T01:10:06.218Z,2.84
2022-12-18T01:11:06.155Z,2.74
2022-12-18T01:12:06.086Z,2.71
2022-12-18T01:13:06.029Z,2.71
2022-12-18T01:14:06.003Z,2.76
2022-12-18T01:15:05.912Z,2.67
2022-12-18T01:16:05.871Z,2.69
2022-12-18T01:17:05.766Z,2.66
2022-12-18T01:18:05.704Z,2.67
2022-12-18T01:19:05.641Z,2.70
2022-12-18T01:20:05.593Z,2.66
2022-12-18T01:21:05.516Z,2.76
2022-12-18T01:22:05.447Z,2.71
2022-12-18T01:23:05.383Z,2.63
2022-12-18T01:24:05.316Z,2.67
2022-12-18T01:25:05.255Z,2.69
2022-12-18T01:26:05.189Z,2.69
2022-12-18T01:27:05.131Z,2.64
2022-12-18T01:28:05.064Z,2.64
2022-12-18T01:29:04.996Z,2.63
2022-12-18T01:30:04.936Z,2.64
2022-12-18T01:31:04.867Z,2.61
2022-12-18T01:32:04.889Z,2.58
2022-12-18T01:33:04.747Z,2.63
2022-12-18T01:34:04.673Z,2.61
2022-12-18T01:35:04.610Z,2.64
2022-12-18T01:36:04.545Z,2.53
2022-12-18T01:37:04.490Z,2.59
2022-12-18T01:38:04.422Z,2.46
2022-12-18T01:39:04.359Z,2.63
2022-12-18T01:40:04.379Z,2.58
2022-12-18T01:41:04.230Z,2.53
2022-12-18T01:42:04.163Z,2.49
2022-12-18T01:43:04.096Z,2.48
2022-12-18T01:44:04.036Z,2.58
2022-12-18T01:45:03.968Z,2.55
2022-12-18T01:46:03.966Z,2.48
2022-12-18T01:47:03.846Z,2.49
2022-12-18T01:48:03.776Z,2.52
2022-12-18T01:49:03.716Z,2.46
2022-12-18T01:50:03.649Z,2.48
2022-12-18T01:51:03.586Z,2.41
2022-12-18T01:52:03.524Z,2.53
2022-12-18T01:53:03.452Z,2.52
2022-12-18T01:54:03.396Z,2.52
2022-12-18T01:55:03.332Z,2.51
2022-12-18T01:56:03.265Z,2.48
2022-12-18T01:57:03.203Z,2.45
2022-12-18T01:58:03.137Z,2.48
2022-12-18T01:59:03.073Z,2.48
2022-12-18T02:00:03.003Z,2.45
2022-12-18T02:01:03.029Z,2.45
2022-12-18T02:02:03.063Z,2.45
2022-12-18T02:03:02.877Z,2.41
2022-12-18T02:04:02.753Z,2.49
2022-12-18T02:05:02.686Z,2.44
2022-12-18T02:06:02.619Z,2.51
2022-12-18T02:07:02.554Z,2.45
2022-12-18T02:08:02.495Z,2.49
2022-12-18T02:09:02.427Z,2.44
2022-12-18T02:10:02.361Z,2.44
2022-12-18T02:11:02.303Z,2.48
2022-12-18T02:12:02.233Z,2.45
2022-12-18T02:13:02.272Z,2.31
2022-12-18T02:14:02.107Z,2.41
2022-12-18T02:15:02.038Z,2.41
2022-12-18T02:16:01.979Z,2.41
2022-12-18T02:17:01.984Z,2.41
2022-12-18T02:18:01.854Z,2.35
2022-12-18T02:19:01.786Z,2.38
2022-12-18T02:20:01.737Z,2.41
2022-12-18T02:21:01.659Z,2.45
2022-12-18T02:22:01.592Z,2.33
2022-12-18T02:23:01.527Z,2.46
2022-12-18T02:24:01.488Z,2.31
2022-12-18T02:25:01.395Z,2.45
2022-12-18T02:26:01.335Z,2.41
2022-12-18T02:27:01.269Z,2.33
2022-12-18T02:28:01.208Z,2.30
2022-12-18T02:29:01.251Z,2.34
2022-12-18T02:30:01.077Z,2.31
2022-12-18T02:31:01.093Z,2.35
2022-12-18T02:32:00.944Z,2.31
2022-12-18T02:33:00.883Z,2.35
2022-12-18T02:34:00.822Z,2.34
2022-12-18T02:35:00.750Z,2.31
2022-12-18T02:36:00.689Z,2.33
2022-12-18T02:37:00.624Z,2.33
2022-12-18T02:38:00.565Z,2.28
2022-12-18T02:39:00.492Z,2.33
2022-12-18T02:40:00.431Z,2.35
2022-12-18T02:41:00.376Z,2.26
2022-12-18T02:42:00.303Z,2.27
2022-12-18T02:43:00.235Z,2.30
2022-12-18T02:44:00.176Z,2.30
2022-12-18T02:45:00.220Z,2.27
2022-12-18T02:46:00.138Z,2.30
2022-12-18T02:46:59.981Z,2.23
2022-12-18T02:47:59.933Z,2.27
2022-12-18T02:48:59.851Z,2.27
2022-12-18T02:49:59.808Z,2.28
2022-12-18T02:50:59.724Z,2.17
2022-12-18T02:51:59.663Z,2.19
2022-12-18T02:52:59.594Z,2.23
2022-12-18T02:53:59.530Z,2.20
2022-12-18T02:54:59.467Z,2.19
2022-12-18T02:55:59.398Z,2.22
2022-12-18T02:56:59.340Z,2.22
2022-12-18T02:57:59.273Z,2.19
2022-12-18T02:58:59.204Z,2.17
2022-12-18T02:59:59.144Z,2.23
2022-12-18T03:00:59.271Z,2.20
2022-12-18T03:01:59.267Z,2.22
2022-12-18T03:02:59.134Z,2.15
2022-12-18T03:03:58.886Z,2.15
2022-12-18T03:04:58.823Z,2.16
2022-12-18T03:05:58.759Z,2.16
2022-12-18T03:06:58.696Z,2.23
2022-12-18T03:07:58.625Z,2.15
2022-12-18T03:08:58.561Z,2.10
2022-12-18T03:09:58.500Z,2.15
2022-12-18T03:10:58.446Z,2.15
2022-12-18T03:11:58.366Z,2.12
2022-12-18T03:12:58.299Z,2.13
2022-12-18T03:13:58.238Z,2.16
2022-12-18T03:14:58.175Z,2.12
2022-12-18T03:15:58.113Z,2.10
2022-12-18T03:16:58.193Z,2.13
2022-12-18T03:17:57.979Z,2.16
2022-12-18T03:18:57.917Z,2.12
2022-12-18T03:19:57.850Z,2.13
2022-12-18T03:20:57.788Z,2.10
2022-12-18T03:21:57.721Z,2.12
2022-12-18T03:22:57.660Z,2.13
2022-12-18T03:23:57.599Z,2.10
2022-12-18T03:24:57.530Z,1.99
2022-12-18T03:25:57.467Z,2.02
2022-12-18T03:26:57.398Z,2.06
2022-12-18T03:27:57.343Z,2.04
2022-12-18T03:28:57.271Z,2.04
2022-12-18T03:29:57.206Z,2.10
2022-12-18T03:30:57.242Z,2.06
2022-12-18T03:31:57.077Z,2.02
2022-12-18T03:33:00.224Z,2.04
2022-12-18T03:33:56.951Z,2.04
2022-12-18T03:34:56.882Z,2.10
2022-12-18T03:35:56.819Z,2.01
2022-12-18T03:36:56.756Z,1.97
2022-12-18T03:37:56.689Z,2.01
2022-12-18T03:38:56.623Z,2.02
2022-12-18T03:39:56.559Z,1.98
2022-12-18T03:40:56.499Z,2.09
2022-12-18T03:41:56.429Z,2.01
2022-12-18T03:42:56.365Z,2.08
2022-12-18T03:43:56.301Z,1.98
2022-12-18T03:44:56.233Z,2.06
2022-12-18T03:45:56.241Z,1.97
2022-12-18T03:46:56.107Z,2.01
2022-12-18T03:47:56.041Z,2.01
2022-12-18T03:48:56.079Z,1.98
2022-12-18T03:49:55.920Z,1.97
2022-12-18T03:50:55.850Z,1.99
2022-12-18T03:51:55.786Z,1.97
2022-12-18T03:52:55.725Z,1.94
2022-12-18T03:53:55.659Z,1.98
2022-12-18T03:54:55.594Z,1.94
2022-12-18T03:55:55.527Z,1.99
2022-12-18T03:56:55.461Z,1.94
2022-12-18T03:57:55.396Z,1.97
2022-12-18T03:58:55.328Z,1.87
2022-12-18T03:59:55.270Z,1.99
2022-12-18T04:00:55.207Z,1.87
2022-12-18T04:01:55.193Z,1.93
2022-12-18T04:02:55.077Z,1.90
2022-12-18T04:03:55.062Z,1.87
2022-12-18T04:04:55.039Z,1.91
2022-12-18T04:05:54.882Z,1.85
2022-12-18T04:06:54.814Z,1.89
2022-12-18T04:07:54.749Z,1.90
2022-12-18T04:08:54.684Z,1.93
2022-12-18T04:09:54.621Z,1.80
2022-12-18T04:10:54.552Z,1.87
2022-12-18T04:11:54.494Z,1.93
2022-12-18T04:12:54.426Z,1.87
2022-12-18T04:13:54.360Z,1.87
2022-12-18T04:14:54.298Z,1.90
2022-12-18T04:15:54.263Z,1.83
2022-12-18T04:16:54.170Z,1.90
2022-12-18T04:17:54.105Z,1.83
2022-12-18T04:18:54.033Z,1.85
2022-12-18T04:19:53.978Z,1.82
2022-12-18T04:20:54.010Z,1.83
2022-12-18T04:21:53.840Z,1.83
2022-12-18T04:22:53.780Z,1.79
2022-12-18T04:23:53.716Z,1.79
2022-12-18T04:24:53.651Z,1.78
2022-12-18T04:25:53.586Z,1.73
2022-12-18T04:26:53.526Z,1.89
2022-12-18T04:27:53.452Z,1.83
2022-12-18T04:28:53.386Z,1.80
2022-12-18T04:29:53.327Z,1.83
2022-12-18T04:30:53.300Z,1.83
2022-12-18T04:31:53.194Z,1.76
2022-12-18T04:32:53.128Z,1.76
2022-12-18T04:33:53.072Z,1.79
2022-12-18T04:34:53.001Z,1.72
2022-12-18T04:35:52.941Z,1.73
2022-12-18T04:36:52.999Z,1.71
2022-12-18T04:37:52.805Z,1.80
2022-12-18T04:38:52.737Z,1.69
2022-12-18T04:39:52.686Z,1.76
2022-12-18T04:40:52.612Z,1.69
2022-12-18T04:41:52.549Z,1.75
2022-12-18T04:42:52.515Z,1.76
2022-12-18T04:43:52.418Z,1.65
2022-12-18T04:44:52.353Z,1.75
2022-12-18T04:45:52.286Z,1.76
2022-12-18T04:46:52.274Z,1.72
2022-12-18T04:47:52.162Z,1.65
2022-12-18T04:48:52.095Z,1.72
2022-12-18T04:49:52.032Z,1.68
2022-12-18T04:50:51.961Z,1.71
2022-12-18T04:51:51.900Z,1.72
2022-12-18T04:52:51.947Z,1.75
2022-12-18T04:53:51.771Z,1.69
2022-12-18T04:54:51.700Z,1.71
2022-12-18T04:55:51.644Z,1.75
2022-12-18T04:56:51.573Z,1.68
2022-12-18T04:57:51.512Z,1.69
2022-12-18T04:58:51.509Z,1.69
2022-12-18T04:59:51.379Z,1.68
2022-12-18T05:00:51.317Z,1.64
2022-12-18T05:01:51.449Z,1.65
2022-12-18T05:02:51.348Z,1.65
2022-12-18T05:03:51.165Z,1.58
2022-12-18T05:04:51.060Z,1.65
2022-12-18T05:05:50.991Z,1.61
2022-12-18T05:06:50.927Z,1.62
2022-12-18T05:07:50.869Z,1.61
2022-12-18T05:08:50.916Z,1.58
2022-12-18T05:09:50.728Z,1.61
2022-12-18T05:10:52.648Z,1.57
2022-12-18T05:11:50.605Z,1.65
2022-12-18T05:12:50.534Z,1.58
2022-12-18T05:13:50.475Z,1.58
2022-12-18T05:14:50.411Z,1.65
2022-12-18T05:15:50.366Z,1.61
2022-12-18T05:16:50.273Z,1.62
2022-12-18T05:17:50.212Z,1.60
2022-12-18T05:18:50.146Z,1.61
2022-12-18T05:19:50.085Z,1.60
2022-12-18T05:20:50.021Z,1.61
2022-12-18T05:21:49.953Z,1.55
2022-12-18T05:22:49.887Z,1.52
2022-12-18T05:23:49.821Z,1.54
2022-12-18T05:24:49.858Z,1.55
2022-12-18T05:25:49.696Z,1.52
2022-12-18T05:26:49.630Z,1.58
2022-12-18T05:27:49.568Z,1.54
2022-12-18T05:28:49.495Z,1.51
2022-12-18T05:29:49.438Z,1.52
2022-12-18T05:30:49.416Z,1.50
2022-12-18T05:31:49.353Z,1.60
2022-12-18T05:32:49.242Z,1.43
2022-12-18T05:33:49.173Z,1.51
2022-12-18T05:34:49.106Z,1.47
2022-12-18T05:35:49.042Z,1.51
2022-12-18T05:36:48.975Z,1.54
2022-12-18T05:37:48.915Z,1.54
2022-12-18T05:38:48.846Z,1.55
2022-12-18T05:39:48.784Z,1.51
2022-12-18T05:40:48.820Z,1.61
2022-12-18T05:41:48.651Z,1.51
2022-12-18T05:42:48.595Z,1.50
2022-12-18T05:43:48.522Z,1.54
2022-12-18T05:44:48.467Z,1.54
2022-12-18T05:45:48.395Z,1.55
2022-12-18T05:46:48.400Z,1.51
2022-12-18T05:47:48.263Z,1.52
2022-12-18T05:48:48.200Z,1.54
2022-12-18T05:49:48.136Z,1.54
2022-12-18T05:50:48.070Z,1.52
2022-12-18T05:51:48.009Z,1.52
2022-12-18T05:52:47.940Z,1.51
2022-12-18T05:53:47.875Z,1.52
2022-12-18T05:54:47.807Z,1.57
2022-12-18T05:55:47.747Z,1.54
2022-12-18T05:56:49.046Z,1.47
2022-12-18T05:57:47.615Z,1.54
2022-12-18T05:58:47.617Z,1.54
2022-12-18T05:59:47.480Z,1.51
2022-12-18T06:00:47.421Z,1.54
2022-12-18T06:01:47.502Z,1.58
2022-12-18T06:02:47.381Z,1.52
2022-12-18T06:03:47.556Z,1.60
2022-12-18T06:04:47.159Z,1.50
2022-12-18T06:05:47.099Z,1.51
2022-12-18T06:06:47.027Z,1.54
2022-12-18T06:07:46.975Z,1.50
2022-12-18T06:08:47.042Z,1.50
2022-12-18T06:09:46.833Z,1.51
2022-12-18T06:10:46.771Z,1.47
2022-12-18T06:11:46.698Z,1.44
2022-12-18T06:12:46.737Z,1.52
2022-12-18T06:13:46.578Z,1.40
2022-12-18T06:14:46.507Z,1.37
2022-12-18T06:15:46.495Z,1.46
2022-12-18T06:16:46.382Z,1.42
2022-12-18T06:17:46.307Z,1.40
2022-12-18T06:18:46.245Z,1.50
2022-12-18T06:19:46.182Z,1.52
2022-12-18T06:20:46.113Z,1.50
2022-12-18T06:21:46.051Z,1.47
2022-12-18T06:22:45.992Z,1.50
2022-12-18T06:23:45.917Z,1.50
2022-12-18T06:24:45.858Z,1.37
2022-12-18T06:25:45.790Z,1.36
2022-12-18T06:26:45.724Z,1.39
2022-12-18T06:27:45.663Z,1.36
2022-12-18T06:28:45.706Z,1.46
2022-12-18T06:29:45.529Z,1.37
2022-12-18T06:30:45.462Z,1.39
2022-12-18T06:31:45.483Z,1.43
2022-12-18T06:32:45.339Z,1.43
2022-12-18T06:33:45.268Z,1.40
2022-12-18T06:34:45.209Z,1.40
2022-12-18T06:35:45.135Z,1.42
2022-12-18T06:36:45.077Z,1.43
2022-12-18T06:37:45.011Z,1.42
2022-12-18T06:38:45.027Z,1.39
2022-12-18T06:39:44.876Z,1.44
2022-12-18T06:40:44.812Z,1.43
2022-12-18T06:41:44.750Z,1.34
2022-12-18T06:42:44.686Z,1.44
2022-12-18T06:43:44.656Z,1.47
2022-12-18T06:44:44.652Z,1.43
2022-12-18T06:45:44.537Z,1.36
2022-12-18T06:46:44.423Z,1.37
2022-12-18T06:47:44.362Z,1.36
2022-12-18T06:48:44.300Z,1.47
2022-12-18T06:49:44.224Z,1.42
2022-12-18T06:50:44.170Z,1.33
2022-12-18T06:51:44.101Z,1.33
2022-12-18T06:52:44.040Z,1.40
2022-12-18T06:53:43.967Z,1.34
2022-12-18T06:54:43.898Z,1.42
2022-12-18T06:55:43.838Z,1.33
2022-12-18T06:56:43.769Z,1.29
2022-12-18T06:57:43.709Z,1.34
2022-12-18T06:58:43.638Z,1.28
2022-12-18T06:59:43.572Z,1.32
2022-12-18T07:00:43.646Z,1.29
2022-12-18T07:01:43.646Z,1.29
2022-12-18T07:02:43.442Z,1.34
2022-12-18T07:03:44.137Z,1.26
2022-12-18T07:04:43.256Z,1.29
2022-12-18T07:05:43.188Z,1.34
2022-12-18T07:06:43.120Z,1.32
2022-12-18T07:07:43.052Z,1.34
2022-12-18T07:08:42.987Z,1.32
2022-12-18T07:09:42.927Z,1.33
2022-12-18T07:10:46.773Z,1.36
2022-12-18T07:11:42.800Z,1.33
2022-12-18T07:12:42.732Z,1.37
2022-12-18T07:13:42.989Z,1.26
2022-12-18T07:14:42.597Z,1.33
2022-12-18T07:15:42.534Z,1.33
2022-12-18T07:16:42.607Z,1.32
2022-12-18T07:17:42.400Z,1.32
2022-12-18T07:18:42.340Z,1.29
2022-12-18T07:19:42.273Z,1.33
2022-12-18T07:20:42.205Z,1.34
2022-12-18T07:21:42.139Z,1.29
2022-12-18T07:22:42.081Z,1.33
2022-12-18T07:23:42.317Z,1.29
2022-12-18T07:24:41.947Z,1.34
2022-12-18T07:25:41.884Z,1.29
2022-12-18T07:26:41.843Z,1.36
2022-12-18T07:27:41.752Z,1.28
2022-12-18T07:28:41.788Z,1.28
2022-12-18T07:29:41.620Z,1.29
2022-12-18T07:30:41.558Z,1.25
2022-12-18T07:31:41.598Z,1.29
2022-12-18T07:32:41.527Z,1.29
2022-12-18T07:33:43.485Z,1.29
2022-12-18T07:34:41.297Z,1.33
2022-12-18T07:35:41.228Z,1.16
2022-12-18T07:36:41.319Z,1.28
2022-12-18T07:37:41.103Z,1.22
2022-12-18T07:38:41.033Z,1.19
2022-12-18T07:39:40.971Z,1.29
2022-12-18T07:40:40.906Z,1.24
2022-12-18T07:41:46.445Z,1.22
2022-12-18T07:42:40.769Z,1.29
2022-12-18T07:43:41.293Z,1.32
2022-12-18T07:44:40.643Z,1.16
2022-12-18T07:45:40.588Z,1.29
2022-12-18T07:46:40.511Z,1.28
2022-12-18T07:47:40.448Z,1.24
2022-12-18T07:48:40.487Z,1.32
2022-12-18T07:49:40.316Z,1.26
2022-12-18T07:50:40.256Z,1.19
2022-12-18T07:51:40.183Z,1.25
2022-12-18T07:52:40.116Z,1.16
2022-12-18T07:53:40.464Z,1.26
2022-12-18T07:54:39.994Z,1.26
2022-12-18T07:56:05.369Z,1.19
2022-12-18T07:56:39.857Z,1.32
2022-12-18T07:57:50.401Z,1.22
2022-12-18T07:58:39.731Z,1.28
2022-12-18T07:59:39.751Z,1.19
2022-12-18T08:00:39.604Z,1.19
2022-12-18T08:01:39.599Z,1.15
2022-12-18T08:02:39.523Z,1.28
2022-12-18T08:03:39.739Z,1.18
2022-12-18T08:04:39.434Z,1.32
2022-12-18T08:05:39.271Z,1.28
2022-12-18T08:06:41.704Z,1.19
2022-12-18T08:07:39.136Z,1.24
2022-12-18T08:08:39.076Z,1.18
2022-12-18T08:09:39.011Z,1.26
2022-12-18T08:10:38.942Z,1.15
2022-12-18T08:11:38.878Z,1.19
2022-12-18T08:12:38.815Z,1.21
2022-12-18T08:13:39.158Z,1.28
2022-12-18T08:14:38.687Z,1.15
2022-12-18T08:15:38.618Z,1.14
2022-12-18T08:16:38.592Z,1.28
2022-12-18T08:17:38.488Z,1.18
2022-12-18T08:18:38.419Z,1.16
2022-12-18T08:19:38.353Z,1.19
2022-12-18T08:20:38.394Z,1.16
2022-12-18T08:21:38.223Z,1.19
2022-12-18T08:22:38.158Z,1.16
2022-12-18T08:23:42.631Z,1.21
2022-12-18T08:24:38.032Z,1.19
2022-12-18T08:25:37.961Z,1.25
2022-12-18T08:26:37.911Z,1.15
2022-12-18T08:27:37.836Z,1.28
2022-12-18T08:28:37.769Z,1.22
2022-12-18T08:29:37.712Z,1.16
2022-12-18T08:30:37.726Z,1.21
2022-12-18T08:31:37.610Z,1.16
2022-12-18T08:32:37.510Z,1.15
2022-12-18T08:33:37.843Z,1.19
2022-12-18T08:34:37.382Z,1.15
2022-12-18T08:35:42.523Z,1.26
2022-12-18T08:36:43.233Z,1.16
2022-12-18T08:37:37.280Z,1.19
2022-12-18T08:38:37.113Z,1.21
2022-12-18T08:39:37.055Z,1.12
2022-12-18T08:40:36.983Z,1.21
2022-12-18T08:41:36.920Z,1.19
2022-12-18T08:42:36.857Z,1.18
2022-12-18T08:43:36.976Z,1.14
2022-12-18T08:44:36.745Z,1.19
2022-12-18T08:45:36.676Z,1.16
2022-12-18T08:46:36.685Z,1.14
2022-12-18T08:47:36.545Z,1.22
2022-12-18T08:48:36.469Z,1.24
2022-12-18T08:49:36.399Z,1.18
2022-12-18T08:50:36.355Z,1.12
2022-12-18T08:51:36.264Z,1.21
2022-12-18T08:52:36.238Z,1.18
2022-12-18T08:53:36.267Z,1.16
2022-12-18T08:54:36.076Z,1.12
2022-12-18T08:55:36.001Z,1.21
2022-12-18T08:56:35.943Z,1.19
2022-12-18T08:57:35.871Z,1.19
2022-12-18T08:58:35.807Z,1.21
2022-12-18T08:59:35.745Z,1.18
2022-12-18T09:00:35.680Z,1.18
2022-12-18T09:01:35.836Z,1.19
2022-12-18T09:02:35.692Z,1.16
2022-12-18T09:03:35.564Z,1.18
2022-12-18T09:04:35.422Z,1.15
2022-12-18T09:05:35.349Z,1.12
2022-12-18T09:06:35.290Z,1.22
2022-12-18T09:07:35.221Z,1.18
2022-12-18T09:08:35.157Z,1.19
2022-12-18T09:09:35.201Z,1.18
2022-12-18T09:10:38.865Z,1.18
2022-12-18T09:11:34.959Z,1.18
2022-12-18T09:12:34.893Z,1.22
2022-12-18T09:13:34.825Z,1.16
2022-12-18T09:14:34.780Z,1.21
2022-12-18T09:15:34.701Z,1.12
2022-12-18T09:16:34.639Z,1.16
2022-12-18T09:17:34.567Z,1.22
2022-12-18T09:18:34.504Z,1.21
2022-12-18T09:19:34.434Z,1.12
2022-12-18T09:20:34.376Z,1.21
2022-12-18T09:21:35.881Z,1.22
2022-12-18T09:22:34.241Z,1.25
2022-12-18T09:23:34.171Z,1.21
2022-12-18T09:24:34.112Z,1.16
2022-12-18T09:25:34.157Z,1.28
2022-12-18T09:26:33.978Z,1.15
2022-12-18T09:27:33.919Z,1.18
2022-12-18T09:28:33.846Z,1.12
2022-12-18T09:29:33.782Z,1.21
2022-12-18T09:30:33.777Z,1.21
2022-12-18T09:31:33.661Z,1.21
2022-12-18T09:32:33.592Z,1.16
2022-12-18T09:33:33.521Z,1.19
2022-12-18T09:34:33.458Z,1.04
2022-12-18T09:35:33.388Z,0.82
2022-12-18T09:36:33.325Z,0.58
2022-12-18T09:37:33.260Z,0.20
2022-12-18T09:38:33.199Z,-0.11
2022-12-18T09:39:33.136Z,-0.42
2022-12-18T09:40:33.063Z,-0.62
2022-12-18T09:41:33.101Z,-0.86
2022-12-18T09:42:32.937Z,-0.94
2022-12-18T09:43:32.866Z,-1.20
2022-12-18T09:44:32.899Z,-1.41
2022-12-18T09:45:32.742Z,-1.45
2022-12-18T09:46:32.727Z,-1.62
2022-12-18T09:47:32.609Z,-1.69
2022-12-18T09:48:32.551Z,-1.74
2022-12-18T09:49:32.474Z,-1.80
2022-12-18T09:50:32.412Z,-1.80
2022-12-18T09:51:32.351Z,-1.95
2022-12-18T09:52:32.284Z,-1.90
2022-12-18T09:53:32.213Z,-1.95
2022-12-18T09:54:32.153Z,-1.99
2022-12-18T09:55:36.827Z,-1.98
2022-12-18T09:56:32.017Z,-1.87
2022-12-18T09:57:32.053Z,-1.85
2022-12-18T09:58:31.882Z,-1.74
2022-12-18T09:59:31.820Z,-1.78
2022-12-18T10:00:31.750Z,-1.62
2022-12-18T10:01:40.179Z,-1.51
2022-12-18T10:02:31.787Z,-1.38
2022-12-18T10:03:31.551Z,-1.18
2022-12-18T10:04:31.559Z,-0.97
2022-12-18T10:05:31.422Z,-0.92
2022-12-18T10:06:31.358Z,-0.87
2022-12-18T10:07:31.287Z,-0.70
2022-12-18T10:08:31.222Z,-0.52
2022-12-18T10:09:31.162Z,-0.45
2022-12-18T10:10:31.093Z,-0.29
2022-12-18T10:11:31.031Z,-0.26
2022-12-18T10:12:30.968Z,-0.12
2022-12-18T10:13:31.003Z,0.05
2022-12-18T10:14:30.832Z,0.06
2022-12-18T10:15:30.840Z,0.21
2022-12-18T10:16:30.697Z,0.20
2022-12-18T10:17:30.636Z,0.41
2022-12-18T10:18:30.572Z,0.38
2022-12-18T10:19:30.497Z,0.53
2022-12-18T10:20:30.434Z,0.57
2022-12-18T10:21:30.369Z,0.58
2022-12-18T10:22:30.303Z,0.70
2022-12-18T10:23:30.239Z,0.71
2022-12-18T10:24:30.170Z,0.72
2022-12-18T10:25:30.108Z,0.72
2022-12-18T10:26:30.042Z,0.80
2022-12-18T10:27:29.986Z,0.85
2022-12-18T10:28:29.908Z,0.92
2022-12-18T10:29:30.016Z,0.88
2022-12-18T10:30:29.782Z,0.90
2022-12-18T10:31:29.749Z,0.97
2022-12-18T10:32:29.655Z,1.06
2022-12-18T10:33:29.581Z,1.08
2022-12-18T10:34:29.512Z,1.12
2022-12-18T10:35:29.452Z,1.12
2022-12-18T10:36:29.390Z,1.12
2022-12-18T10:37:29.318Z,1.15
2022-12-18T10:38:29.265Z,1.19
2022-12-18T10:39:29.195Z,1.14
2022-12-18T10:40:29.125Z,1.24
2022-12-18T10:41:29.453Z,1.22
2022-12-18T10:42:28.999Z,1.22
2022-12-18T10:43:28.926Z,1.21
2022-12-18T10:44:28.861Z,1.26
2022-12-18T10:45:28.909Z,1.19
2022-12-18T10:46:28.771Z,1.25
2022-12-18T10:47:28.665Z,1.22
2022-12-18T10:48:28.598Z,1.32
2022-12-18T10:49:28.534Z,1.33
2022-12-18T10:50:40.962Z,1.16
2022-12-18T10:51:31.501Z,1.28
2022-12-18T10:52:28.341Z,1.25
2022-12-18T10:53:28.275Z,1.22
2022-12-18T10:54:28.209Z,1.29
2022-12-18T10:55:28.138Z,1.28
2022-12-18T10:56:28.072Z,1.33
2022-12-18T10:57:28.013Z,1.24
2022-12-18T10:58:27.946Z,1.36
2022-12-18T10:59:27.889Z,1.29
2022-12-18T11:00:27.818Z,1.32
2022-12-18T11:01:27.931Z,1.19
2022-12-18T11:02:27.847Z,1.29
2022-12-18T11:03:27.647Z,1.26
2022-12-18T11:04:27.551Z,1.26
2022-12-18T11:05:27.487Z,1.37
2022-12-18T11:06:27.425Z,1.26
2022-12-18T11:07:27.355Z,1.36
2022-12-18T11:08:27.289Z,1.43
2022-12-18T11:09:27.224Z,1.42
2022-12-18T11:10:27.162Z,1.47
2022-12-18T11:11:27.096Z,1.46
2022-12-18T11:12:27.039Z,1.40
2022-12-18T11:13:26.967Z,1.40
2022-12-18T11:14:26.895Z,1.44
2022-12-18T11:15:26.838Z,1.51
2022-12-18T11:16:26.797Z,1.52
2022-12-18T11:17:27.214Z,1.55
2022-12-18T11:18:26.635Z,1.57
2022-12-18T11:19:26.576Z,1.54
2022-12-18T11:20:26.503Z,1.57
2022-12-18T11:21:26.444Z,1.51
2022-12-18T11:22:26.376Z,1.51
2022-12-18T11:23:26.309Z,1.52
2022-12-18T11:24:26.254Z,1.58
2022-12-18T11:25:35.151Z,1.57
2022-12-18T11:26:26.116Z,1.58
2022-12-18T11:27:47.737Z,1.58
2022-12-18T11:28:25.989Z,1.69
2022-12-18T11:29:25.935Z,1.65
2022-12-18T11:30:25.853Z,1.73
2022-12-18T11:31:25.816Z,1.72
2022-12-18T11:32:25.721Z,1.73
2022-12-18T11:33:25.758Z,1.78
2022-12-18T11:34:30.068Z,1.83
2022-12-18T11:35:25.523Z,1.72
2022-12-18T11:36:25.468Z,1.87
2022-12-18T11:37:25.402Z,1.90
2022-12-18T11:38:25.341Z,1.90
2022-12-18T11:39:25.263Z,1.93
2022-12-18T11:40:25.224Z,1.85
2022-12-18T11:41:25.136Z,1.90
2022-12-18T11:42:25.077Z,1.85
2022-12-18T11:43:25.010Z,1.80
2022-12-18T11:44:24.942Z,1.73
2022-12-18T11:45:24.880Z,1.78
2022-12-18T11:46:24.850Z,1.75
2022-12-18T11:47:24.752Z,1.69
2022-12-18T11:48:24.680Z,1.72
2022-12-18T11:49:24.706Z,1.71
2022-12-18T11:50:24.552Z,1.65
2022-12-18T11:51:27.265Z,1.64
2022-12-18T11:52:24.417Z,1.61
2022-12-18T11:53:24.356Z,1.65
2022-12-18T11:54:24.289Z,1.64
2022-12-18T11:55:24.220Z,1.58
2022-12-18T11:56:24.161Z,1.61
2022-12-18T11:57:24.087Z,1.52
2022-12-18T11:58:27.879Z,1.62
2022-12-18T11:59:23.959Z,1.60
2022-12-18T12:00:23.895Z,1.54
2022-12-18T12:01:23.862Z,1.61
2022-12-18T12:02:24.021Z,1.51
2022-12-18T12:03:23.698Z,1.58
2022-12-18T12:04:23.762Z,1.64
2022-12-18T12:05:23.666Z,1.60
2022-12-18T12:06:23.508Z,1.55
2022-12-18T12:07:23.439Z,1.62
2022-12-18T12:08:23.453Z,1.58
2022-12-18T12:09:23.303Z,1.61
2022-12-18T12:10:23.249Z,1.51
2022-12-18T12:11:23.175Z,1.65
2022-12-18T12:12:23.128Z,1.58
2022-12-18T12:13:23.045Z,1.58
2022-12-18T12:14:22.981Z,1.60
2022-12-18T12:15:22.922Z,1.61
2022-12-18T12:17:54.434Z,1.61
2022-12-18T12:18:54.371Z,1.61
2022-12-18T12:20:47.307Z,1.62
2022-12-18T12:21:47.130Z,1.64
2022-12-18T12:23:40.199Z,1.58
2022-12-18T12:24:39.898Z,1.65
2022-12-18T12:26:32.740Z,1.69
2022-12-18T12:27:32.661Z,1.65
2022-12-18T12:29:25.521Z,1.71
2022-12-18T12:30:25.453Z,1.71
2022-12-18T12:32:18.292Z,1.71
2022-12-18T12:33:18.212Z,1.71
2022-12-18T12:35:11.056Z,1.64
2022-12-18T12:36:11.079Z,1.73
2022-12-18T12:38:03.825Z,1.75
2022-12-18T12:39:03.751Z,1.75
2022-12-18T12:41:02.434Z,1.69
2022-12-18T12:41:56.511Z,1.72
2022-12-18T12:43:50.885Z,1.72
2022-12-18T12:44:55.641Z,1.69
2022-12-18T12:46:42.129Z,1.76
2022-12-18T12:47:42.056Z,1.75
2022-12-18T12:49:39.016Z,1.71
2022-12-18T12:50:34.908Z,1.72
2022-12-18T12:52:27.819Z,1.76
2022-12-18T12:53:27.640Z,1.76
2022-12-18T12:55:21.391Z,1.79
2022-12-18T12:56:20.763Z,1.82
2022-12-18T12:58:13.306Z,1.82
2022-12-18T12:59:13.239Z,1.82
2022-12-18T13:01:06.164Z,1.72
2022-12-18T13:02:06.624Z,1.79
2022-12-18T13:03:58.897Z,1.75
2022-12-18T13:04:58.788Z,1.89
2022-12-18T13:06:51.629Z,1.82
2022-12-18T13:07:51.653Z,1.90
2022-12-18T13:09:44.879Z,1.91
2022-12-18T13:10:44.324Z,1.89
2022-12-18T13:12:37.168Z,1.90
2022-12-18T13:13:37.093Z,1.90
2022-12-18T13:15:29.956Z,1.91
2022-12-18T13:16:29.859Z,1.91
2022-12-18T13:18:22.713Z,1.91
2022-12-18T13:19:22.631Z,1.87
2022-12-18T13:21:15.490Z,1.90
2022-12-18T13:22:15.405Z,1.83
2022-12-18T13:24:08.349Z,1.91
2022-12-18T13:25:08.175Z,1.87
2022-12-18T13:27:01.066Z,1.90
2022-12-18T13:28:01.008Z,1.90
2022-12-18T13:29:53.791Z,1.90
2022-12-18T13:30:55.471Z,1.94
2022-12-18T13:32:46.562Z,1.99
2022-12-18T13:34:23.875Z,1.87
2022-12-18T13:35:39.323Z,1.97
2022-12-18T13:36:39.259Z,1.98
2022-12-18T13:38:32.103Z,1.97
2022-12-18T13:39:34.755Z,1.97
2022-12-18T13:41:24.867Z,1.98
2022-12-18T13:42:24.793Z,1.97
2022-12-18T13:44:17.703Z,1.98
2022-12-18T13:45:17.636Z,2.06